Avalon, Victoria

9:14 PM AEDT on February 08, 2016 (GMT +1100)
Avalon | | Change Station
CLOSE
Current Station
Airport
Location: Avalon,
Elevation: 33 ft
Nearby Weather Stations

Elev 33 ft 38.03 °S, 144.48 °E | Updated 14 minutes ago

Mostly Cloudy
Mostly Cloudy
64 °F
Feels Like 64 °F
N
13
Wind Variable Wind from South

Today
High -- | Low -- °F
--% Chance of Precip.
Yesterday
High -- | Low -- °F
Precip. -- in
Pressure 30.18 in
Visibility 6.2 miles
Clouds Mostly Cloudy 2300 ft
Dew Point 57 °F
Humidity 77%
Rainfall 0.00 in
Snow Depth Not available.
6:42 AM 8:29 PM
Waning Crescent, 0% visible
METAR YMAV 081000Z AUTO 18011KT 9999 // BKN023 18/14 Q1022
Pressure 30.18 in
Visibility 6.2 miles
Clouds Mostly Cloudy 2300 ft
Dew Point 57 °F
Humidity 77%
Rainfall 0.00 in
Snow Depth Not available.
6:42 AM 8:29 PM
Waning Crescent, 0% visible
METAR YMAV 081000Z AUTO 18011KT 9999 // BKN023 18/14 Q1022

10-Day Weather Forecast

Almanac

Astronomy

Feb. 08, 2016 Rise Set
Actual Time
Civil Twilight
Nautical Twilight
Astronomical Twilight
Moon
Length of Visible Light
Length of Day
Tomorrow will be .
, % of the Moon is Illuminated

Today's Extremes

Country Highs Country Lows

Community

WunderPhotos

Upload Photos

1,891,412 photos uploaded!

WunderBlog® & News

Nearby

Air Quality

  Air Quality AQ Index Pollutant
Not available.

Snow Depth

Station Depth Elevation

Earthquake Activity

City Distance Mag. Time & Date
Minimum magnitude displayed is 2.5.

Coastal Water Temperatures

Place Temperature

Stations

Nearby Weather Stations

Station Location Temp. Windchill Dew Point Humidity Wind Precip. Elev Updated Type